createdAt,value
2024-01-26T00:01:54.426Z,1.46
2024-01-26T00:04:21.305Z,1.28
2024-01-26T00:06:48.978Z,1.25
2024-01-26T00:09:16.877Z,1.42
2024-01-26T00:11:44.071Z,1.40
2024-01-26T00:14:11.293Z,1.42
2024-01-26T00:16:38.865Z,1.48
2024-01-26T00:19:08.582Z,1.38
2024-01-26T00:21:35.629Z,1.28
2024-01-26T00:24:02.400Z,1.06
2024-01-26T00:26:28.852Z,1.05
2024-01-26T00:28:55.353Z,1.12
2024-01-26T00:31:21.935Z,1.19
2024-01-26T00:33:48.666Z,1.10
2024-01-26T00:36:15.497Z,0.95
2024-01-26T00:38:42.553Z,0.85
2024-01-26T00:41:09.085Z,0.71
2024-01-26T00:43:35.688Z,0.69
2024-01-26T00:46:02.347Z,0.93
2024-01-26T00:48:29.166Z,0.92
2024-01-26T00:50:56.089Z,0.88
2024-01-26T00:53:23.642Z,0.96
2024-01-26T00:55:50.796Z,0.87
2024-01-26T00:58:17.336Z,0.91
2024-01-26T01:00:44.370Z,0.92
2024-01-26T01:03:11.052Z,0.97
2024-01-26T01:05:37.677Z,0.83
2024-01-26T01:08:05.836Z,0.74
2024-01-26T01:10:32.438Z,0.95
2024-01-26T01:12:58.980Z,0.96
2024-01-26T01:15:25.481Z,0.78
2024-01-26T01:17:52.033Z,0.82
2024-01-26T01:20:18.555Z,0.91
2024-01-26T01:22:45.388Z,0.67
2024-01-26T01:25:13.407Z,0.48
2024-01-26T01:27:40.588Z,0.44
2024-01-26T01:30:09.067Z,0.38
2024-01-26T01:32:35.987Z,0.29
2024-01-26T01:35:03.177Z,0.29
2024-01-26T01:37:29.799Z,0.25
2024-01-26T01:39:56.263Z,0.44
2024-01-26T01:42:22.721Z,0.41
2024-01-26T01:44:49.401Z,0.26
2024-01-26T01:47:16.509Z,0.23
2024-01-26T01:49:45.169Z,0.49
2024-01-26T01:52:15.756Z,0.62
2024-01-26T01:54:42.268Z,0.37
2024-01-26T01:57:12.589Z,0.27
2024-01-26T01:59:39.226Z,0.44
2024-01-26T02:02:06.028Z,0.38
2024-01-26T02:04:33.018Z,0.22
2024-01-26T02:07:01.759Z,0.20
2024-01-26T02:09:28.906Z,0.43
2024-01-26T02:11:56.680Z,0.53
2024-01-26T02:14:24.035Z,0.33
2024-01-26T02:17:02.552Z,0.19
2024-01-26T02:19:30.807Z,0.17
2024-01-26T02:21:57.338Z,0.22
2024-01-26T02:24:23.853Z,0.40
2024-01-26T02:26:50.450Z,0.45
2024-01-26T02:29:16.982Z,0.34
2024-01-26T02:31:43.479Z,0.17
2024-01-26T02:34:13.867Z,0.09
2024-01-26T02:36:40.612Z,0.09
2024-01-26T02:39:07.388Z,-0.10
2024-01-26T02:41:35.788Z,0.06
2024-01-26T02:44:04.036Z,-0.02
2024-01-26T02:46:30.614Z,-0.16
2024-01-26T02:48:57.462Z,-0.19
2024-01-26T02:51:24.112Z,-0.26
2024-01-26T02:53:50.689Z,-0.32
2024-01-26T02:56:17.264Z,-0.19
2024-01-26T02:58:43.844Z,-0.18
2024-01-26T03:01:10.401Z,-0.35
2024-01-26T03:03:36.992Z,-0.22
2024-01-26T03:06:03.785Z,-0.08
2024-01-26T03:08:30.369Z,-0.15
2024-01-26T03:10:56.846Z,0.02
2024-01-26T03:13:23.316Z,0.10
2024-01-26T03:15:51.300Z,0.09
2024-01-26T03:18:18.814Z,0.11
2024-01-26T03:20:45.846Z,0.11
2024-01-26T03:23:12.823Z,-0.06
2024-01-26T03:25:39.889Z,0.05
2024-01-26T03:28:07.511Z,0.20
2024-01-26T03:30:35.208Z,0.19
2024-01-26T03:33:02.145Z,-0.02
2024-01-26T03:35:28.832Z,-0.17
2024-01-26T03:37:55.498Z,-0.14
2024-01-26T03:40:23.482Z,0.08
2024-01-26T03:42:50.002Z,0.14
2024-01-26T03:45:16.640Z,0.05
2024-01-26T03:47:43.303Z,0.07
2024-01-26T03:50:10.293Z,0.23
2024-01-26T03:52:36.881Z,0.35
2024-01-26T03:55:03.649Z,0.31
2024-01-26T03:57:30.173Z,0.18
2024-01-26T03:59:56.664Z,0.04
2024-01-26T04:02:23.162Z,-0.12
2024-01-26T04:04:49.644Z,-0.17
2024-01-26T04:07:16.215Z,0.08
2024-01-26T04:09:42.693Z,0.21
2024-01-26T04:12:09.404Z,0.35
2024-01-26T04:14:36.009Z,0.27
2024-01-26T04:17:02.509Z,-0.02
2024-01-26T04:19:29.176Z,0.01
2024-01-26T04:21:55.697Z,0.14
2024-01-26T04:24:22.172Z,0.16
2024-01-26T04:26:48.648Z,0.08
2024-01-26T04:29:15.146Z,-0.02
2024-01-26T04:31:45.233Z,-0.11
2024-01-26T04:34:12.500Z,0.06
2024-01-26T04:36:39.081Z,-0.13
2024-01-26T04:39:05.694Z,-0.10
2024-01-26T04:41:32.262Z,-0.19
2024-01-26T04:43:58.747Z,-0.19
2024-01-26T04:46:25.233Z,-0.26
2024-01-26T04:48:51.891Z,-0.31
2024-01-26T04:51:18.826Z,-0.47
2024-01-26T04:53:45.396Z,-0.65
2024-01-26T04:56:14.430Z,-0.61
2024-01-26T04:58:41.286Z,-0.55
2024-01-26T05:01:08.768Z,-0.55
2024-01-26T05:03:35.309Z,-0.48
2024-01-26T05:06:02.014Z,-0.45
2024-01-26T05:08:28.644Z,-0.28
2024-01-26T05:10:55.119Z,-0.07
2024-01-26T05:13:21.700Z,-0.08
2024-01-26T05:15:48.379Z,-0.06
2024-01-26T05:18:15.057Z,-0.01
2024-01-26T05:20:41.728Z,-0.03
2024-01-26T05:23:09.087Z,0.03
2024-01-26T05:25:35.548Z,-0.03
2024-01-26T05:28:02.045Z,0.04
2024-01-26T05:30:28.524Z,0.20
2024-01-26T05:32:55.149Z,0.32
2024-01-26T05:35:22.288Z,0.34
2024-01-26T05:37:48.893Z,0.41
2024-01-26T05:40:15.690Z,0.38
2024-01-26T05:42:42.196Z,0.40
2024-01-26T05:45:09.868Z,0.35
2024-01-26T05:47:36.489Z,0.25
2024-01-26T05:50:03.349Z,0.08
2024-01-26T05:52:29.935Z,0.12
2024-01-26T05:54:56.505Z,0.19
2024-01-26T05:57:23.135Z,0.06
2024-01-26T05:59:50.180Z,-0.05
2024-01-26T06:02:16.794Z,-0.02
2024-01-26T06:04:43.368Z,-0.09
2024-01-26T06:07:10.015Z,-0.05
2024-01-26T06:09:36.543Z,0.01
2024-01-26T06:12:03.569Z,0.01
2024-01-26T06:14:30.085Z,0.09
2024-01-26T06:16:56.586Z,0.09
2024-01-26T06:19:23.271Z,0.08
2024-01-26T06:21:50.410Z,0.08
2024-01-26T06:24:17.033Z,-0.11
2024-01-26T06:26:43.653Z,-0.15
2024-01-26T06:29:10.107Z,-0.09
2024-01-26T06:31:36.599Z,-0.24
2024-01-26T06:34:03.244Z,-0.28
2024-01-26T06:36:29.890Z,-0.40
2024-01-26T06:38:56.399Z,-0.32
2024-01-26T06:41:22.960Z,-0.26
2024-01-26T06:43:52.478Z,-0.23
2024-01-26T06:46:25.335Z,-0.14
2024-01-26T06:48:52.223Z,-0.04
2024-01-26T06:51:20.217Z,0.01
2024-01-26T06:53:46.763Z,0.10
2024-01-26T06:56:13.333Z,0.20
2024-01-26T06:58:39.816Z,0.18
2024-01-26T07:01:06.944Z,-0.05
2024-01-26T07:03:33.570Z,-0.20
2024-01-26T07:06:00.201Z,-0.09
2024-01-26T07:08:26.757Z,-0.07
2024-01-26T07:10:53.320Z,-0.13
2024-01-26T07:13:20.232Z,-0.14
2024-01-26T07:15:46.932Z,-0.20
2024-01-26T07:18:13.863Z,-0.48
2024-01-26T07:20:40.455Z,-0.52
2024-01-26T07:23:06.988Z,-0.46
2024-01-26T07:25:33.475Z,-0.37
2024-01-26T07:28:00.058Z,-0.27
2024-01-26T07:30:26.600Z,-0.15
2024-01-26T07:32:53.326Z,-0.25
2024-01-26T07:35:19.895Z,-0.44
2024-01-26T07:37:46.635Z,-0.46
2024-01-26T07:40:13.770Z,-0.38
2024-01-26T07:42:40.252Z,-0.19
2024-01-26T07:45:06.867Z,-0.10
2024-01-26T07:47:36.285Z,0.09
2024-01-26T07:50:04.250Z,0.20
2024-01-26T07:52:30.818Z,0.13
2024-01-26T07:54:57.337Z,0.11
2024-01-26T07:57:25.768Z,0.11
2024-01-26T07:59:52.355Z,0.33
2024-01-26T08:02:19.298Z,0.43
2024-01-26T08:04:46.152Z,0.48
2024-01-26T08:07:15.469Z,0.61
2024-01-26T08:09:42.074Z,0.69
2024-01-26T08:12:09.758Z,0.73
2024-01-26T08:14:37.630Z,0.77
2024-01-26T08:17:04.462Z,0.85
2024-01-26T08:19:31.537Z,0.90
2024-01-26T08:21:58.141Z,0.90
2024-01-26T08:24:24.800Z,0.97
2024-01-26T08:26:51.617Z,0.97
2024-01-26T08:29:18.180Z,0.99
2024-01-26T08:31:45.634Z,1.00
2024-01-26T08:34:12.395Z,1.04
2024-01-26T08:36:39.289Z,1.12
2024-01-26T08:39:06.066Z,1.17
2024-01-26T08:41:33.036Z,1.26
2024-01-26T08:43:59.549Z,1.30
2024-01-26T08:46:26.032Z,1.38
2024-01-26T08:48:52.822Z,1.49
2024-01-26T08:51:19.485Z,1.57
2024-01-26T08:53:46.053Z,1.57
2024-01-26T08:56:13.607Z,1.66
2024-01-26T08:58:40.077Z,1.76
2024-01-26T09:01:06.585Z,1.65
2024-01-26T09:03:33.778Z,1.83
2024-01-26T09:06:00.638Z,1.91
2024-01-26T09:08:27.469Z,2.00
2024-01-26T09:10:54.011Z,2.07
2024-01-26T09:13:22.081Z,2.15
2024-01-26T09:15:48.880Z,2.22
2024-01-26T09:18:15.571Z,2.32
2024-01-26T09:20:42.945Z,2.39
2024-01-26T09:23:09.481Z,2.46
2024-01-26T09:25:35.960Z,2.55
2024-01-26T09:28:02.419Z,2.59
2024-01-26T09:30:29.036Z,2.71
2024-01-26T09:32:55.791Z,2.77
2024-01-26T09:35:22.769Z,2.82
2024-01-26T09:37:49.345Z,2.87
2024-01-26T09:40:16.322Z,2.95
2024-01-26T09:42:43.027Z,3.04
2024-01-26T09:45:10.391Z,3.09
2024-01-26T09:47:37.316Z,3.16
2024-01-26T09:50:05.833Z,3.18
2024-01-26T09:52:35.608Z,3.19
2024-01-26T09:55:02.624Z,3.25
2024-01-26T09:57:31.388Z,3.29
2024-01-26T09:59:58.216Z,3.40
2024-01-26T10:02:26.684Z,3.48
2024-01-26T10:04:54.115Z,3.54
2024-01-26T10:07:21.829Z,3.64
2024-01-26T10:09:48.289Z,3.67
2024-01-26T10:12:14.934Z,3.74
2024-01-26T10:14:41.634Z,3.75
2024-01-26T10:17:08.122Z,3.76
2024-01-26T10:19:35.946Z,3.81
2024-01-26T10:22:03.008Z,3.76
2024-01-26T10:24:30.045Z,3.81
2024-01-26T10:26:57.137Z,3.82
2024-01-26T10:29:24.293Z,3.91
2024-01-26T10:31:51.464Z,4.03
2024-01-26T10:34:19.557Z,4.07
2024-01-26T10:36:49.915Z,4.13
2024-01-26T10:39:25.623Z,4.18
2024-01-26T10:41:54.232Z,4.27
2024-01-26T10:44:22.016Z,4.37
2024-01-26T10:46:49.704Z,4.45
2024-01-26T10:49:17.269Z,4.44
2024-01-26T10:51:44.547Z,4.45
2024-01-26T10:54:12.805Z,4.48
2024-01-26T10:56:40.225Z,4.49
2024-01-26T10:59:11.569Z,4.49
2024-01-26T11:01:39.496Z,4.47
2024-01-26T11:04:09.002Z,4.45
2024-01-26T11:06:36.075Z,4.49
2024-01-26T11:09:08.489Z,4.52
2024-01-26T11:11:39.867Z,4.58
2024-01-26T11:14:07.118Z,4.63
2024-01-26T11:16:35.292Z,4.67
2024-01-26T11:19:03.581Z,4.69
2024-01-26T11:21:45.921Z,4.75
2024-01-26T11:24:16.683Z,4.71
2024-01-26T11:26:44.064Z,4.73
2024-01-26T11:29:15.121Z,4.72
2024-01-26T11:31:43.314Z,4.72
2024-01-26T11:34:23.218Z,4.67
2024-01-26T11:36:49.995Z,4.69
2024-01-26T11:39:17.891Z,4.74
2024-01-26T11:41:46.302Z,4.78
2024-01-26T11:44:21.024Z,4.82
2024-01-26T11:46:48.780Z,4.81
2024-01-26T11:49:15.575Z,4.73
2024-01-26T11:51:42.347Z,4.80
2024-01-26T11:54:09.372Z,4.88
2024-01-26T11:56:35.951Z,4.90
2024-01-26T11:59:02.955Z,4.87
2024-01-26T12:01:29.462Z,4.98
2024-01-26T12:03:56.078Z,5.02
2024-01-26T12:06:23.168Z,5.01
2024-01-26T12:08:49.919Z,5.02
2024-01-26T12:11:18.464Z,5.09
2024-01-26T12:13:45.398Z,5.04
2024-01-26T12:16:12.017Z,5.07
2024-01-26T12:18:39.703Z,5.09
2024-01-26T12:21:06.311Z,5.11
2024-01-26T12:23:35.081Z,5.15
2024-01-26T12:26:01.539Z,5.13
2024-01-26T12:28:28.585Z,5.09
2024-01-26T12:30:55.376Z,5.16
2024-01-26T12:33:24.127Z,5.16
2024-01-26T12:35:53.306Z,5.18
2024-01-26T12:38:20.041Z,5.24
2024-01-26T12:40:48.168Z,5.20
2024-01-26T12:43:14.777Z,5.20
2024-01-26T12:45:41.725Z,5.21
2024-01-26T12:48:09.457Z,5.20
2024-01-26T12:50:36.462Z,5.23
2024-01-26T12:53:03.374Z,5.31
2024-01-26T12:55:29.950Z,5.35
2024-01-26T12:57:56.673Z,5.34
2024-01-26T13:00:23.498Z,5.35
2024-01-26T13:02:50.105Z,5.35
2024-01-26T13:05:17.562Z,5.38
2024-01-26T13:07:44.197Z,5.41
2024-01-26T13:10:10.684Z,5.46
2024-01-26T13:12:37.425Z,5.47
2024-01-26T13:15:05.232Z,5.51
2024-01-26T13:17:31.774Z,5.55
2024-01-26T13:20:05.086Z,5.53
2024-01-26T13:22:38.680Z,5.55
2024-01-26T13:25:05.595Z,5.61
2024-01-26T13:27:32.102Z,5.66
2024-01-26T13:29:58.706Z,5.67
2024-01-26T13:32:25.235Z,5.66
2024-01-26T13:34:51.894Z,5.70
2024-01-26T13:37:18.506Z,5.72
2024-01-26T13:39:45.000Z,5.68
2024-01-26T13:42:11.631Z,5.72
2024-01-26T13:44:38.158Z,5.76
2024-01-26T13:47:05.042Z,5.80
2024-01-26T13:49:31.683Z,5.80
2024-01-26T13:51:58.280Z,5.85
2024-01-26T13:54:25.083Z,5.89
2024-01-26T13:56:55.847Z,5.93
2024-01-26T13:59:22.370Z,5.92
2024-01-26T14:01:49.235Z,5.94
2024-01-26T14:04:15.906Z,5.93
2024-01-26T14:06:42.641Z,5.92
2024-01-26T14:09:09.340Z,5.94
2024-01-26T14:11:37.292Z,5.95
2024-01-26T14:14:06.014Z,5.98
2024-01-26T14:16:32.715Z,5.95
2024-01-26T14:18:59.320Z,5.93
2024-01-26T14:21:25.972Z,5.94
2024-01-26T14:23:52.532Z,5.92
2024-01-26T14:26:19.072Z,5.93
2024-01-26T14:28:47.820Z,5.97
2024-01-26T14:31:14.283Z,5.99
2024-01-26T14:33:41.231Z,5.99
2024-01-26T14:36:08.841Z,6.01
2024-01-26T14:38:35.405Z,6.04
2024-01-26T14:41:01.990Z,6.03
2024-01-26T14:43:28.469Z,6.03
2024-01-26T14:45:54.942Z,6.05
2024-01-26T14:48:21.570Z,6.04
2024-01-26T14:50:48.213Z,6.02
2024-01-26T14:53:14.686Z,6.05
2024-01-26T14:55:41.249Z,6.02
2024-01-26T14:58:07.867Z,6.02
2024-01-26T15:00:36.165Z,6.02
2024-01-26T15:03:02.896Z,6.03
2024-01-26T15:05:29.455Z,6.00
2024-01-26T15:07:56.033Z,6.00
2024-01-26T15:10:23.100Z,5.99
2024-01-26T15:12:50.071Z,5.98
2024-01-26T15:15:19.539Z,5.95
2024-01-26T15:17:49.130Z,5.97
2024-01-26T15:20:16.458Z,5.94
2024-01-26T15:22:45.558Z,5.93
2024-01-26T15:25:14.198Z,5.94
2024-01-26T15:27:41.519Z,5.93
2024-01-26T15:30:13.893Z,5.85
2024-01-26T15:32:41.572Z,5.81
2024-01-26T15:35:12.197Z,5.78
2024-01-26T15:37:39.306Z,5.76
2024-01-26T15:40:07.377Z,5.74
2024-01-26T15:42:34.031Z,5.73
2024-01-26T15:45:02.741Z,5.74
2024-01-26T15:47:29.553Z,5.72
2024-01-26T15:49:56.303Z,5.66
2024-01-26T15:52:29.542Z,5.63
2024-01-26T15:54:59.965Z,5.59
2024-01-26T15:57:26.535Z,5.57
2024-01-26T15:59:53.141Z,5.54
2024-01-26T16:02:19.651Z,5.51
2024-01-26T16:04:46.242Z,5.47
2024-01-26T16:07:12.957Z,5.43
2024-01-26T16:09:40.777Z,5.37
2024-01-26T16:12:07.391Z,5.29
2024-01-26T16:14:33.934Z,5.23
2024-01-26T16:17:00.469Z,5.27
2024-01-26T16:19:27.440Z,5.28
2024-01-26T16:21:54.734Z,5.20
2024-01-26T16:24:21.480Z,5.15
2024-01-26T16:26:48.074Z,5.13
2024-01-26T16:29:14.709Z,5.06
2024-01-26T16:31:42.036Z,4.96
2024-01-26T16:34:08.621Z,4.86
2024-01-26T16:36:35.230Z,4.80
2024-01-26T16:39:03.584Z,4.75
2024-01-26T16:41:31.189Z,4.64
2024-01-26T16:43:57.692Z,4.42
2024-01-26T16:46:25.494Z,4.39
2024-01-26T16:48:52.073Z,4.35
2024-01-26T16:51:18.911Z,4.33
2024-01-26T16:53:45.524Z,4.37
2024-01-26T16:56:13.786Z,4.36
2024-01-26T16:58:40.280Z,4.36
2024-01-26T17:01:13.734Z,4.40
2024-01-26T17:03:40.742Z,4.39
2024-01-26T17:06:07.341Z,4.39
2024-01-26T17:08:34.125Z,4.44
2024-01-26T17:11:00.771Z,4.45
2024-01-26T17:13:29.594Z,4.40
2024-01-26T17:15:57.455Z,4.36
2024-01-26T17:18:24.116Z,4.34
2024-01-26T17:20:50.705Z,4.30
2024-01-26T17:23:17.357Z,4.24
2024-01-26T17:25:43.903Z,4.11
2024-01-26T17:28:10.407Z,4.10
2024-01-26T17:30:36.984Z,4.08
2024-01-26T17:33:03.702Z,4.00
2024-01-26T17:35:32.047Z,4.06
2024-01-26T17:37:59.013Z,4.07
2024-01-26T17:40:25.664Z,4.04
2024-01-26T17:42:53.292Z,3.98
2024-01-26T17:45:21.133Z,4.02
2024-01-26T17:47:49.048Z,4.07
2024-01-26T17:50:15.636Z,4.35
2024-01-26T17:52:42.115Z,4.21
2024-01-26T17:55:08.895Z,4.14
2024-01-26T17:57:35.448Z,4.10
2024-01-26T18:00:02.463Z,4.09
2024-01-26T18:02:29.220Z,4.04
2024-01-26T18:04:55.702Z,4.03
2024-01-26T18:07:22.243Z,4.05
2024-01-26T18:09:49.000Z,3.98
2024-01-26T18:12:15.586Z,3.91
2024-01-26T18:14:42.146Z,3.96
2024-01-26T18:17:08.709Z,3.87
2024-01-26T18:19:35.590Z,3.84
2024-01-26T18:22:02.198Z,3.73
2024-01-26T18:24:28.793Z,3.68
2024-01-26T18:26:55.378Z,3.76
2024-01-26T18:29:21.887Z,3.75
2024-01-26T18:31:48.327Z,3.76
2024-01-26T18:34:15.071Z,3.71
2024-01-26T18:36:41.649Z,3.67
2024-01-26T18:39:08.158Z,3.72
2024-01-26T18:41:34.685Z,3.69
2024-01-26T18:44:01.922Z,3.68
2024-01-26T18:46:28.489Z,3.67
2024-01-26T18:48:56.176Z,3.61
2024-01-26T18:51:24.013Z,3.61
2024-01-26T18:53:50.652Z,3.65
2024-01-26T18:56:18.291Z,3.56
2024-01-26T18:58:45.935Z,3.52
2024-01-26T19:01:15.140Z,3.51
2024-01-26T19:03:43.397Z,3.49
2024-01-26T19:06:10.547Z,3.44
2024-01-26T19:08:40.342Z,3.34
2024-01-26T19:11:06.916Z,3.37
2024-01-26T19:13:33.535Z,3.35
2024-01-26T19:16:02.144Z,3.35
2024-01-26T19:18:29.297Z,3.26
2024-01-26T19:20:56.110Z,3.24
2024-01-26T19:23:22.681Z,3.27
2024-01-26T19:25:51.014Z,3.22
2024-01-26T19:28:18.057Z,3.27
2024-01-26T19:30:44.602Z,3.30
2024-01-26T19:33:11.498Z,3.30
2024-01-26T19:35:38.199Z,3.33
2024-01-26T19:38:04.827Z,3.25
2024-01-26T19:40:31.617Z,3.22
2024-01-26T19:42:58.208Z,3.19
2024-01-26T19:45:25.564Z,3.18
2024-01-26T19:47:52.408Z,3.15
2024-01-26T19:50:19.111Z,3.16
2024-01-26T19:52:45.752Z,3.14
2024-01-26T19:55:12.713Z,3.05
2024-01-26T19:57:41.969Z,3.01
2024-01-26T20:00:10.191Z,3.01
2024-01-26T20:02:37.522Z,3.05
2024-01-26T20:05:05.424Z,3.03
2024-01-26T20:07:31.989Z,3.01
2024-01-26T20:09:59.172Z,2.85
2024-01-26T20:12:25.923Z,2.84
2024-01-26T20:14:52.570Z,2.88
2024-01-26T20:17:21.661Z,2.93
2024-01-26T20:19:48.495Z,2.87
2024-01-26T20:22:15.066Z,2.89
2024-01-26T20:24:42.141Z,2.84
2024-01-26T20:27:09.344Z,2.96
2024-01-26T20:29:37.666Z,2.84
2024-01-26T20:32:04.797Z,2.79
2024-01-26T20:34:31.835Z,2.70
2024-01-26T20:37:00.744Z,2.53
2024-01-26T20:39:27.389Z,2.33
2024-01-26T20:41:54.762Z,2.43
2024-01-26T20:44:21.967Z,2.49
2024-01-26T20:46:48.538Z,2.56
2024-01-26T20:49:15.554Z,2.46
2024-01-26T20:51:42.397Z,2.48
2024-01-26T20:54:08.924Z,2.26
2024-01-26T20:56:35.691Z,2.23
2024-01-26T20:59:04.892Z,2.12
2024-01-26T21:01:34.717Z,2.08
2024-01-26T21:04:01.384Z,2.00
2024-01-26T21:06:28.191Z,2.00
2024-01-26T21:08:54.887Z,2.10
2024-01-26T21:11:22.540Z,2.15
2024-01-26T21:13:49.147Z,2.09
2024-01-26T21:16:15.665Z,2.00
2024-01-26T21:18:42.324Z,1.84
2024-01-26T21:21:09.094Z,1.82
2024-01-26T21:23:35.774Z,1.81
2024-01-26T21:26:04.758Z,1.79
2024-01-26T21:28:31.349Z,2.01
2024-01-26T21:30:57.834Z,2.09
2024-01-26T21:33:24.469Z,2.15
2024-01-26T21:35:51.199Z,2.10
2024-01-26T21:38:17.831Z,2.05
2024-01-26T21:40:44.375Z,1.99
2024-01-26T21:43:11.318Z,1.97
2024-01-26T21:45:37.954Z,1.83
2024-01-26T21:48:08.055Z,1.80
2024-01-26T21:50:35.033Z,1.70
2024-01-26T21:53:01.582Z,1.73
2024-01-26T21:55:28.149Z,1.71
2024-01-26T21:57:54.651Z,1.59
2024-01-26T22:00:21.248Z,1.73
2024-01-26T22:02:49.112Z,1.79
2024-01-26T22:05:15.761Z,1.84
2024-01-26T22:07:42.478Z,1.75
2024-01-26T22:10:09.338Z,1.43
2024-01-26T22:12:36.001Z,1.34
2024-01-26T22:15:04.450Z,1.16
2024-01-26T22:17:32.392Z,1.08
2024-01-26T22:19:59.451Z,1.19
2024-01-26T22:22:27.828Z,1.20
2024-01-26T22:24:54.455Z,1.11
2024-01-26T22:27:21.484Z,1.26
2024-01-26T22:29:48.162Z,1.23
2024-01-26T22:32:14.762Z,1.41
2024-01-26T22:34:41.356Z,1.27
2024-01-26T22:37:07.982Z,1.43
2024-01-26T22:39:34.611Z,1.54
2024-01-26T22:42:01.707Z,1.58
2024-01-26T22:44:28.515Z,1.53
2024-01-26T22:46:55.182Z,1.58
2024-01-26T22:49:22.414Z,1.54
2024-01-26T22:51:49.161Z,1.41
2024-01-26T22:54:15.726Z,1.22
2024-01-26T22:56:42.412Z,1.33
2024-01-26T22:59:08.911Z,1.42
2024-01-26T23:01:35.434Z,1.58
2024-01-26T23:04:02.341Z,1.72
2024-01-26T23:06:29.090Z,1.74
2024-01-26T23:08:55.662Z,1.74
2024-01-26T23:11:23.958Z,1.76
2024-01-26T23:13:51.087Z,1.74
2024-01-26T23:16:21.714Z,1.54
2024-01-26T23:18:48.376Z,1.59
2024-01-26T23:21:15.142Z,1.73
2024-01-26T23:23:41.690Z,1.72
2024-01-26T23:26:08.810Z,1.85
2024-01-26T23:28:36.839Z,1.88
2024-01-26T23:31:03.338Z,1.64
2024-01-26T23:33:30.091Z,1.59
2024-01-26T23:35:56.813Z,1.71
2024-01-26T23:38:23.634Z,1.62
2024-01-26T23:40:50.116Z,1.75
2024-01-26T23:43:16.743Z,1.83
2024-01-26T23:45:43.332Z,1.84
2024-01-26T23:48:11.587Z,1.79
2024-01-26T23:50:40.522Z,1.72
2024-01-26T23:53:07.336Z,1.76
2024-01-26T23:55:33.805Z,1.74
2024-01-26T23:58:00.323Z,1.72
